Ana Sayfa
METAR-TAF:

METAR-TAF

Havaalanları :

N'Djamena, Çad

Enlem: 12-08N, Boylam: 015-02E, yükseklik: 295 m

Güncel hava durumu gözlemi

Rapor saat 07:00 UTC de 26 dakika önce yapıldı.
Rüzgar kuzey/kuzeydoğudan 9 kt
Sıcaklık 22°C
Nem 12%
Basınç 1012 hPa
Görüş mesafesi: 8000 m

METAR: FTTJ 200700Z 02009KT 8000 NSC 22/M09 Q1012 NOSIG

Saat: 08:26 (07:26 UTC)

Tahmin

Rapor saat 05:00 UTC de 2 saat ve 26 dakika önce yapıldı.
Ayın 20'si saat 06 UTC'den ayın 21'si saat 12 UTC'ye kadar geçerli Tahmin
Rüzgar kuzeydan 10 kt
Görüş mesafesi: 4000 m
yaygın toz
Dönüşüyor
ayın 20'si saat 08 UTC'den ayın 20'si saat 09 UTC'ye kadar
Görüş mesafesi: 8000 m

TAF: FTTJ 200500Z 2006/2112 01010KT 4000 DU NSC BECMG 2008/2009 8000 NSW

4.000'den fazla havaalanı için hava durumu gözlemleri ve tahminleri (METAR ve TAF raporları).

Kullanılabilir istasyonlar harita üzerinde sarı ve kırmızı noktalarla gösterilir.

İstasyonun adını görmek için fareyi noktanın üzerinde gezdirin.

Sonrasında hava gözlem ve tahminlerini görmek için tıklayın.

Haritayı değiştirmek için: yaklaştırmak için siyah artı işaretli yeşil düğmeye ve uzaklaştırmak için de eksi işaretli düğmeye hızla tıklayın; bitişik haritalar için yeşil okları kullanın.


METAR-TAF: